»·PEaware :: N6863 KSJC-KEUG

N6863 :: KSJC-KEUG

FLIGHT INFORMATION

Flight Status: Arrived
Operator: Privately registered:
United States
More flights under this callsign
Pilot: Matt G. (13672)
Aircraft: CESSNA 550 CITATION 2/S2/BRAVO
(C550)
More flights by this aircraft type
Origin: KSJC Mineta San Jose Intl
United States
Destination: KEUG Mahlon Sweet
United States
More flights between these airports :: More routes between these airports
Route: BMRNG4 ORRCA RDD DREWS
File this flight plan on PilotEdge
Remarks:
Altitude:
(Current/Filed)
32,000ft
Speed:
(Current/Filed)
252kts
Departed: 09-Dec-18 01:33 PM
Arrived: 09-Dec-18 02:58 PM
Distance/Time
Traveled:
409nm/1:25
Distance/Time
To Go:
Arrived

Flight Plot

Page will automatically refresh every two minutes.

Flight plan parsing failed; only flown route is shown


Map Options




Map Legend


Flown Route
Filed Route
Departure Airport
Arrival Airport
Navaid (VOR, NDB)
Fix

Horizontal Profiles

Position Reports

Time Latitude Longitude Heading Altitude Ground
Speed
09-Dec-18 13:07 37.356208 -121.927756 318 47ft 0kts
09-Dec-18 13:08 37.356208 -121.927756 318 47ft 0kts
09-Dec-18 13:09 37.356208 -121.927756 318 47ft 0kts
09-Dec-18 13:10 37.356208 -121.927756 318 47ft 0kts
09-Dec-18 13:11 37.356208 -121.927756 318 47ft 0kts
09-Dec-18 13:12 37.356208 -121.927756 318 47ft 0kts
09-Dec-18 13:13 37.356208 -121.927756 318 47ft 0kts
09-Dec-18 13:14 37.356208 -121.927756 318 47ft 0kts
09-Dec-18 13:15 37.356208 -121.927756 318 47ft 0kts
09-Dec-18 13:16 37.356208 -121.927756 318 47ft 0kts
09-Dec-18 13:17 37.356208 -121.927756 318 47ft 0kts
09-Dec-18 13:18 37.356208 -121.927756 318 47ft 0kts
09-Dec-18 13:19 37.356208 -121.927756 318 47ft 0kts
09-Dec-18 13:20 37.356208 -121.927756 318 47ft 0kts
09-Dec-18 13:21 37.356208 -121.927756 318 47ft 0kts
09-Dec-18 13:22 37.356208 -121.927756 318 47ft 0kts
09-Dec-18 13:23 37.356311 -121.927707 57 47ft 0kts
09-Dec-18 13:24 37.356382 -121.927313 90 47ft 5kts
09-Dec-18 13:25 37.355114 -121.925770 143 47ft 6kts
09-Dec-18 13:26 37.354852 -121.923534 62 47ft 9kts
09-Dec-18 13:27 37.352904 -121.921012 140 47ft 10kts
09-Dec-18 13:28 37.352216 -121.919739 74 47ft 0kts
09-Dec-18 13:29 37.352216 -121.919738 73 47ft 0kts
09-Dec-18 13:30 37.352216 -121.919738 73 47ft 0kts
09-Dec-18 13:31 37.352865 -121.919208 340 47ft 2kts
09-Dec-18 13:32 37.361814 -121.928873 319 188ft 133kts
09-Dec-18 13:33 37.397493 -121.964064 321 3022ft 181kts
09-Dec-18 13:34 37.437080 -122.001369 336 6204ft 187kts
09-Dec-18 13:35 37.457477 -121.957979 104 8997ft 210kts
09-Dec-18 13:36 37.494959 -121.952815 348 11641ft 198kts
09-Dec-18 13:37 37.547804 -121.960618 358 14186ft 193kts
09-Dec-18 13:38 37.601293 -121.964639 352 16392ft 194kts
09-Dec-18 13:39 37.652593 -121.948399 17 18546ft 192kts
09-Dec-18 13:40 37.701272 -121.923838 15 20421ft 187kts
09-Dec-18 13:41 37.749016 -121.900042 15 22021ft 185kts
09-Dec-18 13:42 37.796911 -121.876183 14 23444ft 186kts
09-Dec-18 13:43 37.844839 -121.852324 13 24733ft 187kts
09-Dec-18 13:44 37.893146 -121.828212 12 25849ft 186kts
09-Dec-18 13:45 37.951533 -121.799468 15 25976ft 272kts
09-Dec-18 13:46 38.027517 -121.761045 16 27188ft 299kts
09-Dec-18 13:47 38.105625 -121.721906 15 28505ft 308kts
09-Dec-18 13:49 38.185422 -121.681890 15 29709ft 316kts
09-Dec-18 13:50 38.267918 -121.640350 15 30825ft 323kts
09-Dec-18 13:51 38.351698 -121.598022 15 31868ft 328kts
09-Dec-18 13:52 38.438584 -121.558675 358 32365ft 339kts
09-Dec-18 13:53 38.530885 -121.581361 336 32364ft 350kts
09-Dec-18 13:54 38.626793 -121.615521 336 32367ft 369kts
09-Dec-18 13:55 38.726967 -121.650735 337 32365ft 381kts
09-Dec-18 13:56 38.829707 -121.686842 337 32361ft 388kts
09-Dec-18 13:57 38.933738 -121.723471 337 32365ft 392kts
09-Dec-18 13:58 39.038709 -121.760618 337 32366ft 394kts
09-Dec-18 13:59 39.130696 -121.793292 337 32359ft 396kts
09-Dec-18 14:00 39.225533 -121.827068 337 32380ft 395kts
09-Dec-18 14:01 39.331355 -121.864886 337 32387ft 395kts
09-Dec-18 14:02 39.436699 -121.902720 337 32386ft 396kts
09-Dec-18 14:03 39.542480 -121.940627 337 32361ft 397kts
09-Dec-18 14:04 39.648143 -121.978687 337 32362ft 397kts
09-Dec-18 14:05 39.754087 -122.016982 337 32361ft 397kts
09-Dec-18 14:06 39.859762 -122.055297 337 32362ft 398kts
09-Dec-18 14:06 39.948493 -122.087552 337 32363ft 398kts
09-Dec-18 14:08 40.072007 -122.132551 334 32360ft 392kts
09-Dec-18 14:08 40.157397 -122.163768 335 32351ft 385kts
09-Dec-18 14:09 40.259690 -122.201359 333 32356ft 382kts
09-Dec-18 14:11 40.378066 -122.244961 333 32328ft 377kts
09-Dec-18 14:11 40.461546 -122.275814 333 32329ft 375kts
09-Dec-18 14:12 40.563201 -122.308913 338 32328ft 381kts
09-Dec-18 14:14 40.684006 -122.338685 338 32327ft 380kts
09-Dec-18 14:14 40.769836 -122.360902 339 32327ft 380kts
09-Dec-18 14:15 40.874012 -122.388213 338 32274ft 383kts
09-Dec-18 14:16 40.977509 -122.415392 338 32299ft 381kts
09-Dec-18 14:17 41.080787 -122.442643 338 32275ft 381kts
09-Dec-18 14:18 41.181827 -122.469365 338 32269ft 380kts
09-Dec-18 14:19 41.284981 -122.496783 338 32271ft 379kts
09-Dec-18 14:20 41.388376 -122.524369 338 32267ft 382kts
09-Dec-18 14:21 41.491850 -122.551956 338 32237ft 382kts
09-Dec-18 14:22 41.595793 -122.579805 338 32244ft 381kts
09-Dec-18 14:23 41.697603 -122.607014 337 31476ft 364kts
09-Dec-18 14:24 41.793719 -122.633005 336 30424ft 344kts
09-Dec-18 14:25 41.882724 -122.656972 336 29433ft 335kts
09-Dec-18 14:26 41.971937 -122.681231 336 28490ft 330kts
09-Dec-18 14:27 42.061221 -122.705529 336 27531ft 327kts
09-Dec-18 14:28 42.148962 -122.729617 336 26569ft 326kts
09-Dec-18 14:29 42.237921 -122.754127 337 25578ft 330kts
09-Dec-18 14:30 42.325941 -122.778160 337 24612ft 328kts
09-Dec-18 14:31 42.412222 -122.801729 337 24227ft 313kts
09-Dec-18 14:32 42.496894 -122.825145 337 23474ft 316kts
09-Dec-18 14:33 42.584100 -122.849443 338 22489ft 323kts
09-Dec-18 14:34 42.671170 -122.873621 338 21517ft 326kts
09-Dec-18 14:35 42.760696 -122.897716 340 20533ft 332kts
09-Dec-18 14:36 42.851197 -122.917403 341 19544ft 331kts
09-Dec-18 14:37 42.940219 -122.937352 340 18555ft 316kts
09-Dec-18 14:38 43.024888 -122.956634 340 17567ft 303kts
09-Dec-18 14:39 43.105891 -122.975142 340 16597ft 298kts
09-Dec-18 14:40 43.186088 -122.993556 340 15596ft 288kts
09-Dec-18 14:41 43.266724 -123.012193 341 14590ft 299kts
09-Dec-18 14:42 43.349413 -123.031131 341 13584ft 303kts
09-Dec-18 14:43 43.432298 -123.050293 342 12581ft 303kts
09-Dec-18 14:44 43.515362 -123.069485 342 11583ft 303kts
09-Dec-18 14:45 43.598319 -123.088690 343 10580ft 302kts
09-Dec-18 14:46 43.680114 -123.107671 343 9986ft 289kts
09-Dec-18 14:47 43.756551 -123.125483 344 9986ft 272kts
09-Dec-18 14:48 43.828280 -123.143595 334 7570ft 246kts
09-Dec-18 14:49 43.876285 -123.198957 332 4048ft 203kts
09-Dec-18 14:50 43.919523 -123.214589 353 3178ft 139kts
09-Dec-18 14:51 43.954040 -123.216402 357 3180ft 100kts
09-Dec-18 14:52 43.987401 -123.216796 358 2859ft 123kts
09-Dec-18 14:53 44.016392 -123.217330 356 2270ft 99kts
09-Dec-18 14:54 44.046552 -123.218059 354 1692ft 113kts
09-Dec-18 14:55 44.077793 -123.217758 357 1079ft 112kts
09-Dec-18 14:56 44.108249 -123.218714 358 487ft 111kts
09-Dec-18 14:57 44.125202 -123.218932 4 362ft 7kts
09-Dec-18 14:58 44.125545 -123.217987 148 362ft 0kts
09-Dec-18 14:59 44.123656 -123.217054 178 365ft 8kts
09-Dec-18 15:00 44.119004 -123.215883 128 368ft 29kts
09-Dec-18 15:01 44.117036 -123.214535 301 369ft 1kts

Navigation Log

Ident Type
Flight plan parsing failed, navigation log unavailable